Saint-Sauveur-Des-Monts, Canada
Current Conditions -  °F | °C
As of 12:00 AM on Friday 28 Nov 2014 (Local Time) from CYMX Reporting Station
Overcast Overcast  
Wind Chill: 25°   Ceiling: 4000
Heat Index: 25°   Visibility: 25mi
Dew Point: 18°   Wind: 0mph
Humidity: 74%   Direction: NA
Pressure: 30.05"   Gusts: NA
Location:  45.9°N, 74.17°W
Report Text: CYMX 280500Z 00000KT 25SM BKN040 OVC120 M04/M08 A3005 RMK SC6AC2 SLP179
Loading
Personal Weather Stations






























Interactive Weather Map New forecast layout! Learn more

10-Day Weather Forecast

Advertisements
Track Severe Weather on mobile